sensor_id;sensor_type;location;lat;lon;timestamp;pressure;altitude;pressure_sealevel;temperature;humidity
40850;BME280;26571;41.610;25.380;2023-04-01T00:00:57;97662.00;;;10.26;89.32
40850;BME280;26571;41.610;25.380;2023-04-01T00:03:23;97651.75;;;10.31;88.95
40850;BME280;26571;41.610;25.380;2023-04-01T00:05:49;97643.66;;;10.33;89.14
40850;BME280;26571;41.610;25.380;2023-04-01T00:08:14;97640.41;;;10.31;88.99
40850;BME280;26571;41.610;25.380;2023-04-01T00:10:40;97648.94;;;10.33;89.16
40850;BME280;26571;41.610;25.380;2023-04-01T00:13:05;97644.31;;;10.35;88.88
40850;BME280;26571;41.610;25.380;2023-04-01T00:15:31;97636.84;;;10.39;88.72
40850;BME280;26571;41.610;25.380;2023-04-01T00:17:56;97636.41;;;10.50;88.48
40850;BME280;26571;41.610;25.380;2023-04-01T00:20:21;97631.66;;;10.60;87.64
40850;BME280;26571;41.610;25.380;2023-04-01T00:22:47;97634.78;;;10.70;86.93
40850;BME280;26571;41.610;25.380;2023-04-01T00:25:12;97623.50;;;10.76;85.58
40850;BME280;26571;41.610;25.380;2023-04-01T00:27:38;97618.25;;;10.76;85.18
40850;BME280;26571;41.610;25.380;2023-04-01T00:30:03;97623.97;;;10.80;85.10
40850;BME280;26571;41.610;25.380;2023-04-01T00:32:29;97626.41;;;10.81;84.98
40850;BME280;26571;41.610;25.380;2023-04-01T00:34:55;97618.31;;;10.83;84.53
40850;BME280;26571;41.610;25.380;2023-04-01T00:37:21;97620.00;;;10.91;84.21
40850;BME280;26571;41.610;25.380;2023-04-01T00:39:46;97600.13;;;10.88;83.88
40850;BME280;26571;41.610;25.380;2023-04-01T00:42:11;97604.56;;;10.87;84.53
40850;BME280;26571;41.610;25.380;2023-04-01T00:44:37;97611.84;;;10.85;84.71
40850;BME280;26571;41.610;25.380;2023-04-01T00:47:03;97601.31;;;10.85;85.24
40850;BME280;26571;41.610;25.380;2023-04-01T00:49:37;97595.06;;;10.86;85.26
40850;BME280;26571;41.610;25.380;2023-04-01T00:52:04;97592.41;;;10.86;85.50
40850;BME280;26571;41.610;25.380;2023-04-01T00:54:30;97588.78;;;10.87;85.68
40850;BME280;26571;41.610;25.380;2023-04-01T00:57:00;97586.94;;;10.88;85.37
40850;BME280;26571;41.610;25.380;2023-04-01T00:59:30;97604.00;;;10.92;85.13
40850;BME280;26571;41.610;25.380;2023-04-01T01:01:56;97595.66;;;10.88;85.49
40850;BME280;26571;41.610;25.380;2023-04-01T01:04:26;97600.94;;;10.88;86.03
40850;BME280;26571;41.610;25.380;2023-04-01T01:12:01;97592.78;;;11.05;85.82
40850;BME280;26571;41.610;25.380;2023-04-01T01:15:04;97590.41;;;11.10;85.55
40850;BME280;26571;41.610;25.380;2023-04-01T01:19:57;97588.50;;;11.04;86.48
40850;BME280;26571;41.610;25.380;2023-04-01T01:25:15;97584.81;;;10.98;87.13
40850;BME280;26571;41.610;25.380;2023-04-01T01:27:45;97579.25;;;10.86;88.19
40850;BME280;26571;41.610;25.380;2023-04-01T01:30:16;97578.25;;;10.66;89.87
40850;BME280;26571;41.610;25.380;2023-04-01T01:37:39;97578.38;;;10.58;92.54
40850;BME280;26571;41.610;25.380;2023-04-01T01:40:07;97580.44;;;10.63;93.07
40850;BME280;26571;41.610;25.380;2023-04-01T01:42:35;97575.81;;;10.65;93.07
40850;BME280;26571;41.610;25.380;2023-04-01T01:45:02;97574.00;;;10.65;93.44
40850;BME280;26571;41.610;25.380;2023-04-01T01:47:28;97575.25;;;10.69;93.93
40850;BME280;26571;41.610;25.380;2023-04-01T01:49:55;97577.13;;;10.75;94.08
40850;BME280;26571;41.610;25.380;2023-04-01T01:52:23;97572.88;;;10.74;94.36
40850;BME280;26571;41.610;25.380;2023-04-01T01:54:52;97573.44;;;10.70;95.89
40850;BME280;26571;41.610;25.380;2023-04-01T01:57:20;97570.34;;;10.66;97.78
40850;BME280;26571;41.610;25.380;2023-04-01T01:59:48;97573.19;;;10.65;99.08
40850;BME280;26571;41.610;25.380;2023-04-01T02:02:14;97565.84;;;10.60;100.00
40850;BME280;26571;41.610;25.380;2023-04-01T02:04:40;97562.66;;;10.65;100.00
40850;BME280;26571;41.610;25.380;2023-04-01T02:07:08;97571.22;;;10.73;100.00
40850;BME280;26571;41.610;25.380;2023-04-01T02:09:36;97573.28;;;10.78;100.00
40850;BME280;26571;41.610;25.380;2023-04-01T02:12:03;97565.84;;;10.81;100.00
40850;BME280;26571;41.610;25.380;2023-04-01T02:16:58;97564.03;;;10.82;100.00
40850;BME280;26571;41.610;25.380;2023-04-01T02:19:26;97561.03;;;10.85;100.00
40850;BME280;26571;41.610;25.380;2023-04-01T02:21:55;97553.53;;;10.88;100.00
40850;BME280;26571;41.610;25.380;2023-04-01T02:24:22;97546.28;;;10.91;100.00
40850;BME280;26571;41.610;25.380;2023-04-01T02:26:50;97535.34;;;10.94;100.00
40850;BME280;26571;41.610;25.380;2023-04-01T02:29:16;97546.75;;;11.01;100.00
40850;BME280;26571;41.610;25.380;2023-04-01T02:31:43;97544.97;;;11.08;100.00
40850;BME280;26571;41.610;25.380;2023-04-01T02:34:08;97530.66;;;11.17;100.00
40850;BME280;26571;41.610;25.380;2023-04-01T02:36:34;97535.16;;;11.23;100.00
40850;BME280;26571;41.610;25.380;2023-04-01T02:39:00;97527.25;;;11.23;100.00
40850;BME280;26571;41.610;25.380;2023-04-01T02:41:27;97524.25;;;11.26;100.00
40850;BME280;26571;41.610;25.380;2023-04-01T02:43:53;97521.03;;;11.31;100.00
40850;BME280;26571;41.610;25.380;2023-04-01T02:46:18;97525.94;;;11.34;100.00
40850;BME280;26571;41.610;25.380;2023-04-01T02:48:43;97519.31;;;11.45;100.00
40850;BME280;26571;41.610;25.380;2023-04-01T02:51:08;97519.94;;;11.53;100.00
40850;BME280;26571;41.610;25.380;2023-04-01T02:53:34;97511.44;;;11.51;100.00
40850;BME280;26571;41.610;25.380;2023-04-01T02:55:59;97509.75;;;11.44;100.00
40850;BME280;26571;41.610;25.380;2023-04-01T02:58:24;97511.34;;;11.38;100.00
40850;BME280;26571;41.610;25.380;2023-04-01T03:00:50;97508.91;;;11.36;100.00
40850;BME280;26571;41.610;25.380;2023-04-01T03:03:15;97505.66;;;11.34;100.00
40850;BME280;26571;41.610;25.380;2023-04-01T03:05:41;97502.38;;;11.26;100.00
40850;BME280;26571;41.610;25.380;2023-04-01T03:08:06;97497.91;;;11.26;100.00
40850;BME280;26571;41.610;25.380;2023-04-01T03:10:31;97486.13;;;11.22;100.00
40850;BME280;26571;41.610;25.380;2023-04-01T03:12:56;97487.38;;;11.26;100.00
40850;BME280;26571;41.610;25.380;2023-04-01T03:15:22;97485.16;;;11.30;100.00
40850;BME280;26571;41.610;25.380;2023-04-01T03:17:47;97490.47;;;11.36;100.00
40850;BME280;26571;41.610;25.380;2023-04-01T03:20:13;97490.47;;;11.36;100.00
40850;BME280;26571;41.610;25.380;2023-04-01T03:22:38;97487.44;;;11.39;100.00
40850;BME280;26571;41.610;25.380;2023-04-01T03:25:04;97495.97;;;11.42;100.00
40850;BME280;26571;41.610;25.380;2023-04-01T03:27:30;97487.03;;;11.43;100.00
40850;BME280;26571;41.610;25.380;2023-04-01T03:29:55;97484.63;;;11.48;100.00
40850;BME280;26571;41.610;25.380;2023-04-01T03:32:20;97475.97;;;11.54;100.00
40850;BME280;26571;41.610;25.380;2023-04-01T03:34:46;97477.41;;;11.63;100.00
40850;BME280;26571;41.610;25.380;2023-04-01T03:37:11;97477.03;;;11.66;100.00
40850;BME280;26571;41.610;25.380;2023-04-01T03:39:36;97475.56;;;11.57;100.00
40850;BME280;26571;41.610;25.380;2023-04-01T03:42:02;97476.16;;;11.52;100.00
40850;BME280;26571;41.610;25.380;2023-04-01T03:44:31;97483.03;;;11.47;100.00
40850;BME280;26571;41.610;25.380;2023-04-01T03:46:57;97471.44;;;11.41;100.00
40850;BME280;26571;41.610;25.380;2023-04-01T03:49:22;97469.59;;;11.35;100.00
40850;BME280;26571;41.610;25.380;2023-04-01T03:51:47;97462.88;;;11.32;100.00
40850;BME280;26571;41.610;25.380;2023-04-01T03:54:12;97459.06;;;11.35;100.00
40850;BME280;26571;41.610;25.380;2023-04-01T03:56:38;97457.00;;;11.30;100.00
40850;BME280;26571;41.610;25.380;2023-04-01T03:59:04;97458.84;;;11.36;100.00
40850;BME280;26571;41.610;25.380;2023-04-01T04:01:30;97455.63;;;11.41;100.00
40850;BME280;26571;41.610;25.380;2023-04-01T04:03:55;97455.03;;;11.46;100.00
40850;BME280;26571;41.610;25.380;2023-04-01T04:06:21;97449.41;;;11.49;100.00
40850;BME280;26571;41.610;25.380;2023-04-01T04:08:47;97449.78;;;11.46;100.00
40850;BME280;26571;41.610;25.380;2023-04-01T04:11:12;97513.03;;;11.52;100.00
40850;BME280;26571;41.610;25.380;2023-04-01T04:13:38;97444.38;;;11.60;100.00
40850;BME280;26571;41.610;25.380;2023-04-01T04:16:03;97446.84;;;11.69;100.00
40850;BME280;26571;41.610;25.380;2023-04-01T04:18:28;97441.56;;;11.75;100.00
40850;BME280;26571;41.610;25.380;2023-04-01T04:20:54;97432.91;;;11.88;100.00
40850;BME280;26571;41.610;25.380;2023-04-01T04:23:19;97438.00;;;11.96;100.00
40850;BME280;26571;41.610;25.380;2023-04-01T04:25:58;97447.97;;;12.01;100.00
40850;BME280;26571;41.610;25.380;2023-04-01T04:28:25;97441.50;;;12.10;100.00
40850;BME280;26571;41.610;25.380;2023-04-01T04:30:50;97445.56;;;12.19;100.00
40850;BME280;26571;41.610;25.380;2023-04-01T04:33:15;97448.00;;;12.27;100.00
40850;BME280;26571;41.610;25.380;2023-04-01T04:35:41;97449.22;;;12.38;100.00
40850;BME280;26571;41.610;25.380;2023-04-01T04:38:06;97441.13;;;12.53;100.00
40850;BME280;26571;41.610;25.380;2023-04-01T04:40:31;97442.97;;;12.59;100.00
40850;BME280;26571;41.610;25.380;2023-04-01T04:42:56;97445.59;;;12.72;100.00
40850;BME280;26571;41.610;25.380;2023-04-01T04:45:22;97447.22;;;12.80;100.00
40850;BME280;26571;41.610;25.380;2023-04-01T04:47:47;97443.13;;;12.90;99.35
40850;BME280;26571;41.610;25.380;2023-04-01T04:50:12;97445.16;;;12.95;99.16
40850;BME280;26571;41.610;25.380;2023-04-01T04:52:38;97442.94;;;13.70;99.11
40850;BME280;26571;41.610;25.380;2023-04-01T04:55:03;97438.72;;;14.64;90.91
40850;BME280;26571;41.610;25.380;2023-04-01T04:57:28;97441.78;;;15.29;83.23
40850;BME280;26571;41.610;25.380;2023-04-01T04:59:54;97444.25;;;15.61;80.12
40850;BME280;26571;41.610;25.380;2023-04-01T05:02:19;97436.91;;;15.44;77.47
40850;BME280;26571;41.610;25.380;2023-04-01T05:04:44;97438.94;;;15.06;78.83
40850;BME280;26571;41.610;25.380;2023-04-01T05:07:10;97433.03;;;14.60;81.21
40850;BME280;26571;41.610;25.380;2023-04-01T05:09:35;97439.16;;;13.98;85.55
40850;BME280;26571;41.610;25.380;2023-04-01T05:12:00;97433.56;;;13.74;87.93
40850;BME280;26571;41.610;25.380;2023-04-01T05:14:26;97424.38;;;14.15;89.17
40850;BME280;26571;41.610;25.380;2023-04-01T05:16:51;97422.03;;;15.07;83.20
40850;BME280;26571;41.610;25.380;2023-04-01T05:19:16;97429.13;;;16.82;73.27
40850;BME280;26571;41.610;25.380;2023-04-01T05:21:42;97428.97;;;18.32;63.95
40850;BME280;26571;41.610;25.380;2023-04-01T05:24:07;97438.63;;;18.50;61.71
40850;BME280;26571;41.610;25.380;2023-04-01T05:26:34;97432.53;;;18.21;61.91
40850;BME280;26571;41.610;25.380;2023-04-01T05:28:59;97432.09;;;17.84;63.16
40850;BME280;26571;41.610;25.380;2023-04-01T05:31:25;97426.59;;;17.62;65.23
40850;BME280;26571;41.610;25.380;2023-04-01T05:33:50;97443.81;;;18.74;61.06
40850;BME280;26571;41.610;25.380;2023-04-01T05:36:16;97443.84;;;20.44;56.18
40850;BME280;26571;41.610;25.380;2023-04-01T05:38:41;97449.72;;;22.26;49.44
40850;BME280;26571;41.610;25.380;2023-04-01T05:41:08;97440.66;;;22.78;46.69
40850;BME280;26571;41.610;25.380;2023-04-01T05:43:35;97449.16;;;23.36;44.88
40850;BME280;26571;41.610;25.380;2023-04-01T05:46:00;97442.69;;;22.09;46.71
40850;BME280;26571;41.610;25.380;2023-04-01T05:48:26;97431.38;;;21.92;47.85
40850;BME280;26571;41.610;25.380;2023-04-01T05:50:51;97431.81;;;21.58;48.97
40850;BME280;26571;41.610;25.380;2023-04-01T05:53:16;97433.09;;;21.08;49.84
40850;BME280;26571;41.610;25.380;2023-04-01T05:55:41;97437.69;;;19.90;53.11
40850;BME280;26571;41.610;25.380;2023-04-01T05:58:07;97434.91;;;19.41;55.60
40850;BME280;26571;41.610;25.380;2023-04-01T06:00:32;97432.56;;;18.89;57.41
40850;BME280;26571;41.610;25.380;2023-04-01T06:02:58;97424.91;;;18.13;60.49
40850;BME280;26571;41.610;25.380;2023-04-01T06:05:27;97436.19;;;17.63;62.94
40850;BME280;26571;41.610;25.380;2023-04-01T06:08:00;97437.66;;;17.07;65.06
40850;BME280;26571;41.610;25.380;2023-04-01T06:10:35;97437.16;;;16.63;67.86
40850;BME280;26571;41.610;25.380;2023-04-01T06:13:11;97432.06;;;16.08;70.82
40850;BME280;26571;41.610;25.380;2023-04-01T06:25:40;97414.44;;;15.10;77.32
40850;BME280;26571;41.610;25.380;2023-04-01T06:31:02;97407.88;;;14.94;78.35
40850;BME280;26571;41.610;25.380;2023-04-01T06:43:28;97426.97;;;15.03;78.32
40850;BME280;26571;41.610;25.380;2023-04-01T06:51:42;97412.00;;;14.65;81.09
40850;BME280;26571;41.610;25.380;2023-04-01T06:54:16;97400.19;;;14.68;81.40
40850;BME280;26571;41.610;25.380;2023-04-01T06:56:43;97404.44;;;14.69;81.54
40850;BME280;26571;41.610;25.380;2023-04-01T06:59:17;97391.53;;;14.79;81.75
40850;BME280;26571;41.610;25.380;2023-04-01T07:02:01;97386.69;;;14.94;81.47
40850;BME280;26571;41.610;25.380;2023-04-01T07:04:30;97376.75;;;15.08;80.82
40850;BME280;26571;41.610;25.380;2023-04-01T07:07:01;97374.09;;;15.27;79.73
40850;BME280;26571;41.610;25.380;2023-04-01T07:09:31;97362.03;;;15.91;77.36
40850;BME280;26571;41.610;25.380;2023-04-01T07:12:00;97359.72;;;16.60;72.23
40850;BME280;26571;41.610;25.380;2023-04-01T07:14:32;97359.50;;;17.08;68.33
40850;BME280;26571;41.610;25.380;2023-04-01T07:17:12;97373.88;;;17.47;67.05
40850;BME280;26571;41.610;25.380;2023-04-01T07:22:09;97370.69;;;17.74;64.81
40850;BME280;26571;41.610;25.380;2023-04-01T07:24:40;97361.81;;;17.56;65.64
40850;BME280;26571;41.610;25.380;2023-04-01T07:27:10;97356.41;;;17.51;66.17
40850;BME280;26571;41.610;25.380;2023-04-01T07:29:35;97342.81;;;17.24;66.84
40850;BME280;26571;41.610;25.380;2023-04-01T07:32:05;97348.06;;;17.08;67.63
40850;BME280;26571;41.610;25.380;2023-04-01T07:47:26;97308.09;;;16.55;70.76
40850;BME280;26571;41.610;25.380;2023-04-01T07:55:14;97299.94;;;17.95;64.26
40850;BME280;26571;41.610;25.380;2023-04-01T08:05:39;97278.03;;;19.70;56.71
40850;BME280;26571;41.610;25.380;2023-04-01T08:08:12;97268.16;;;19.48;56.66
40850;BME280;26571;41.610;25.380;2023-04-01T08:13:34;97273.19;;;18.96;58.03
40850;BME280;26571;41.610;25.380;2023-04-01T08:23:44;97259.53;;;17.81;60.94
40850;BME280;26571;41.610;25.380;2023-04-01T08:26:28;97268.88;;;17.83;62.00
40850;BME280;26571;41.610;25.380;2023-04-01T08:28:59;97267.91;;;17.73;61.18
40850;BME280;26571;41.610;25.380;2023-04-01T08:31:29;97250.59;;;17.58;61.13
40850;BME280;26571;41.610;25.380;2023-04-01T08:33:56;97256.50;;;17.61;61.46
40850;BME280;26571;41.610;25.380;2023-04-01T08:38:49;97254.28;;;18.03;59.56
40850;BME280;26571;41.610;25.380;2023-04-01T08:56:42;97230.22;;;19.19;50.39
40850;BME280;26571;41.610;25.380;2023-04-01T08:59:32;97224.91;;;19.46;50.01
40850;BME280;26571;41.610;25.380;2023-04-01T09:04:38;97219.75;;;19.99;49.10
40850;BME280;26571;41.610;25.380;2023-04-01T09:12:18;97206.69;;;19.38;43.89
40850;BME280;26571;41.610;25.380;2023-04-01T09:22:35;97188.91;;;18.73;48.17
40850;BME280;26571;41.610;25.380;2023-04-01T09:35:23;97154.94;;;18.85;46.86
40850;BME280;26571;41.610;25.380;2023-04-01T09:37:53;97158.69;;;18.89;46.38
40850;BME280;26571;41.610;25.380;2023-04-01T09:45:42;97141.88;;;19.10;46.28
40850;BME280;26571;41.610;25.380;2023-04-01T09:48:13;97146.00;;;19.28;45.30
40850;BME280;26571;41.610;25.380;2023-04-01T09:56:34;97129.75;;;19.99;44.51
40850;BME280;26571;41.610;25.380;2023-04-01T10:30:44;97082.41;;;19.15;47.97
40850;BME280;26571;41.610;25.380;2023-04-01T10:33:19;97064.66;;;18.99;48.60
40850;BME280;26571;41.610;25.380;2023-04-01T10:38:36;97091.22;;;18.89;50.39
40850;BME280;26571;41.610;25.380;2023-04-01T10:41:18;97112.16;;;18.53;50.13
40850;BME280;26571;41.610;25.380;2023-04-01T10:43:57;97110.63;;;18.35;51.53
40850;BME280;26571;41.610;25.380;2023-04-01T10:46:44;97104.38;;;18.46;52.09
40850;BME280;26571;41.610;25.380;2023-04-01T10:52:17;97080.22;;;18.31;53.30
40850;BME280;26571;41.610;25.380;2023-04-01T10:54:58;97107.16;;;18.13;54.07
40850;BME280;26571;41.610;25.380;2023-04-01T11:15:29;97062.31;;;18.53;54.36
40850;BME280;26571;41.610;25.380;2023-04-01T11:23:17;97057.28;;;18.30;54.06
40850;BME280;26571;41.610;25.380;2023-04-01T11:26:04;97044.56;;;18.37;55.11
40850;BME280;26571;41.610;25.380;2023-04-01T11:31:02;97043.53;;;18.92;53.50
40850;BME280;26571;41.610;25.380;2023-04-01T11:33:42;97033.47;;;18.99;52.90
40850;BME280;26571;41.610;25.380;2023-04-01T11:43:46;97013.59;;;18.80;53.06
40850;BME280;26571;41.610;25.380;2023-04-01T11:57:05;97012.97;;;18.73;53.23
40850;BME280;26571;41.610;25.380;2023-04-01T11:59:50;97023.03;;;18.66;52.36
40850;BME280;26571;41.610;25.380;2023-04-01T12:10:33;96995.78;;;18.64;53.36
40850;BME280;26571;41.610;25.380;2023-04-01T12:18:26;96979.16;;;18.51;52.61
40850;BME280;26571;41.610;25.380;2023-04-01T12:46:16;96919.09;;;18.39;54.07
40850;BME280;26571;41.610;25.380;2023-04-01T12:51:23;96908.28;;;18.23;54.28
40850;BME280;26571;41.610;25.380;2023-04-01T13:01:52;96881.34;;;18.20;54.69
40850;BME280;26571;41.610;25.380;2023-04-01T13:12:25;96896.44;;;18.09;54.89
40850;BME280;26571;41.610;25.380;2023-04-01T13:27:34;96868.50;;;18.12;53.34
40850;BME280;26571;41.610;25.380;2023-04-01T13:30:17;96865.13;;;17.94;54.16
40850;BME280;26571;41.610;25.380;2023-04-01T13:43:25;96874.53;;;18.02;53.29
40850;BME280;26571;41.610;25.380;2023-04-01T13:58:20;96890.50;;;17.75;54.58
40850;BME280;26571;41.610;25.380;2023-04-01T14:01:05;96889.53;;;17.81;54.54
40850;BME280;26571;41.610;25.380;2023-04-01T14:16:41;96850.16;;;17.39;55.41
40850;BME280;26571;41.610;25.380;2023-04-01T14:24:45;96824.72;;;17.48;55.02
40850;BME280;26571;41.610;25.380;2023-04-01T14:27:21;96827.34;;;17.43;55.81
40850;BME280;26571;41.610;25.380;2023-04-01T14:32:46;96813.97;;;17.38;55.89
40850;BME280;26571;41.610;25.380;2023-04-01T14:48:34;96818.31;;;17.00;56.90
40850;BME280;26571;41.610;25.380;2023-04-01T15:14:31;96862.75;;;16.83;58.89
40850;BME280;26571;41.610;25.380;2023-04-01T15:30:22;96865.66;;;16.48;61.30
40850;BME280;26571;41.610;25.380;2023-04-01T15:40:20;96900.09;;;16.43;64.10
40850;BME280;26571;41.610;25.380;2023-04-01T15:42:51;96907.91;;;16.49;65.88
40850;BME280;26571;41.610;25.380;2023-04-01T15:45:42;96919.25;;;16.45;68.48
40850;BME280;26571;41.610;25.380;2023-04-01T15:56:19;96959.47;;;15.91;76.59
40850;BME280;26571;41.610;25.380;2023-04-01T15:58:59;96978.75;;;15.75;79.10
40850;BME280;26571;41.610;25.380;2023-04-01T16:09:22;97022.63;;;15.19;92.54
40850;BME280;26571;41.610;25.380;2023-04-01T16:17:05;97058.88;;;14.95;99.00
40850;BME280;26571;41.610;25.380;2023-04-01T16:29:45;97041.09;;;13.93;100.00
40850;BME280;26571;41.610;25.380;2023-04-01T16:34:43;97018.31;;;13.56;100.00
40850;BME280;26571;41.610;25.380;2023-04-01T16:39:54;96972.88;;;13.04;100.00
40850;BME280;26571;41.610;25.380;2023-04-01T16:47:21;96973.69;;;12.54;100.00
40850;BME280;26571;41.610;25.380;2023-04-01T16:49:52;96966.09;;;12.64;100.00
40850;BME280;26571;41.610;25.380;2023-04-01T16:52:32;96947.94;;;12.75;100.00
40850;BME280;26571;41.610;25.380;2023-04-01T16:54:59;96952.41;;;12.74;100.00
40850;BME280;26571;41.610;25.380;2023-04-01T17:02:38;96974.41;;;12.68;100.00
40850;BME280;26571;41.610;25.380;2023-04-01T17:05:11;96981.66;;;12.73;100.00
40850;BME280;26571;41.610;25.380;2023-04-01T17:10:30;96984.50;;;12.71;100.00
40850;BME280;26571;41.610;25.380;2023-04-01T17:15:29;96976.28;;;12.86;100.00
40850;BME280;26571;41.610;25.380;2023-04-01T17:18:04;96974.16;;;12.94;100.00
40850;BME280;26571;41.610;25.380;2023-04-01T17:20:43;96975.41;;;12.92;100.00
40850;BME280;26571;41.610;25.380;2023-04-01T17:28:44;96998.59;;;12.65;100.00
40850;BME280;26571;41.610;25.380;2023-04-01T17:49:36;97045.41;;;13.08;100.00
40850;BME280;26571;41.610;25.380;2023-04-01T17:52:25;97052.44;;;13.14;100.00
40850;BME280;26571;41.610;25.380;2023-04-01T17:57:30;97061.13;;;13.21;100.00
40850;BME280;26571;41.610;25.380;2023-04-01T18:00:18;97077.97;;;13.27;100.00
40850;BME280;26571;41.610;25.380;2023-04-01T18:16:26;97072.00;;;13.56;100.00
40850;BME280;26571;41.610;25.380;2023-04-01T18:19:47;97062.09;;;13.70;100.00
40850;BME280;26571;41.610;25.380;2023-04-01T18:21:43;97076.94;;;13.53;100.00
40850;BME280;26571;41.610;25.380;2023-04-01T18:24:18;97089.41;;;13.45;100.00
40850;BME280;26571;41.610;25.380;2023-04-01T18:26:59;97092.59;;;13.29;100.00
40850;BME280;26571;41.610;25.380;2023-04-01T18:29:30;97088.50;;;13.02;100.00
40850;BME280;26571;41.610;25.380;2023-04-01T18:34:42;97103.31;;;12.39;100.00
40850;BME280;26571;41.610;25.380;2023-04-01T18:37:17;97110.66;;;12.31;100.00
40850;BME280;26571;41.610;25.380;2023-04-01T18:39:48;97106.78;;;12.33;100.00
40850;BME280;26571;41.610;25.380;2023-04-01T18:44:55;97026.13;;;12.06;100.00
40850;BME280;26571;41.610;25.380;2023-04-01T18:50:13;97134.91;;;12.91;100.00
40850;BME280;26571;41.610;25.380;2023-04-01T18:52:43;97143.41;;;13.00;100.00
40850;BME280;26571;41.610;25.380;2023-04-01T18:57:54;97158.50;;;13.24;100.00
40850;BME280;26571;41.610;25.380;2023-04-01T19:00:34;97155.41;;;13.27;100.00
40850;BME280;26571;41.610;25.380;2023-04-01T19:05:42;97152.94;;;13.32;100.00
40850;BME280;26571;41.610;25.380;2023-04-01T19:15:52;97166.16;;;13.32;100.00
40850;BME280;26571;41.610;25.380;2023-04-01T19:20:53;97190.00;;;13.26;100.00
40850;BME280;26571;41.610;25.380;2023-04-01T19:23:39;97222.97;;;13.23;100.00
40850;BME280;26571;41.610;25.380;2023-04-01T19:26:22;97222.28;;;13.34;100.00
40850;BME280;26571;41.610;25.380;2023-04-01T19:31:38;97210.09;;;13.33;100.00
40850;BME280;26571;41.610;25.380;2023-04-01T19:39:25;97229.16;;;13.35;100.00
40850;BME280;26571;41.610;25.380;2023-04-01T19:44:31;97235.22;;;13.42;100.00
40850;BME280;26571;41.610;25.380;2023-04-01T19:47:05;97231.06;;;13.28;100.00
40850;BME280;26571;41.610;25.380;2023-04-01T19:49:51;97231.09;;;13.15;100.00
40850;BME280;26571;41.610;25.380;2023-04-01T19:52:31;97227.28;;;13.04;100.00
40850;BME280;26571;41.610;25.380;2023-04-01T19:57:41;97213.22;;;12.72;100.00
40850;BME280;26571;41.610;25.380;2023-04-01T20:10:45;97205.94;;;12.61;100.00
40850;BME280;26571;41.610;25.380;2023-04-01T20:13:17;97220.59;;;12.57;100.00
40850;BME280;26571;41.610;25.380;2023-04-01T20:15:47;97228.31;;;12.52;100.00
40850;BME280;26571;41.610;25.380;2023-04-01T20:18:23;97227.09;;;12.48;100.00
40850;BME280;26571;41.610;25.380;2023-04-01T20:21:00;97226.09;;;12.42;100.00
40850;BME280;26571;41.610;25.380;2023-04-01T20:23:34;97226.31;;;12.40;100.00
40850;BME280;26571;41.610;25.380;2023-04-01T20:26:06;97235.06;;;12.34;100.00
40850;BME280;26571;41.610;25.380;2023-04-01T20:28:37;97250.72;;;12.29;100.00
40850;BME280;26571;41.610;25.380;2023-04-01T20:36:16;97253.38;;;12.16;100.00
40850;BME280;26571;41.610;25.380;2023-04-01T20:39:03;97245.47;;;12.16;100.00
40850;BME280;26571;41.610;25.380;2023-04-01T20:49:01;97234.88;;;12.23;100.00
40850;BME280;26571;41.610;25.380;2023-04-01T20:51:31;97227.19;;;12.14;100.00
40850;BME280;26571;41.610;25.380;2023-04-01T21:02:08;97227.00;;;12.09;100.00
40850;BME280;26571;41.610;25.380;2023-04-01T21:10:17;97240.19;;;11.96;100.00
40850;BME280;26571;41.610;25.380;2023-04-01T21:20:25;97245.84;;;11.73;100.00
40850;BME280;26571;41.610;25.380;2023-04-01T21:25:26;97252.94;;;11.66;100.00
40850;BME280;26571;41.610;25.380;2023-04-01T21:38:18;97258.63;;;11.50;100.00
40850;BME280;26571;41.610;25.380;2023-04-01T21:51:17;97287.56;;;11.36;100.00
40850;BME280;26571;41.610;25.380;2023-04-01T21:54:03;97294.47;;;11.37;100.00
40850;BME280;26571;41.610;25.380;2023-04-01T22:11:54;97293.00;;;11.28;100.00
40850;BME280;26571;41.610;25.380;2023-04-01T22:17:25;97305.81;;;11.31;100.00
40850;BME280;26571;41.610;25.380;2023-04-01T22:27:45;97304.13;;;11.17;100.00
40850;BME280;26571;41.610;25.380;2023-04-01T22:32:47;97311.59;;;11.07;100.00
40850;BME280;26571;41.610;25.380;2023-04-01T22:38:07;97324.47;;;10.88;100.00
40850;BME280;26571;41.610;25.380;2023-04-01T22:43:17;97327.09;;;10.88;100.00
40850;BME280;26571;41.610;25.380;2023-04-01T22:48:22;97333.13;;;10.76;100.00
40850;BME280;26571;41.610;25.380;2023-04-01T22:50:59;97336.38;;;10.78;100.00
40850;BME280;26571;41.610;25.380;2023-04-01T22:56:01;97347.25;;;10.68;100.00
40850;BME280;26571;41.610;25.380;2023-04-01T22:59:15;97347.06;;;10.70;100.00
40850;BME280;26571;41.610;25.380;2023-04-01T23:01:15;97343.13;;;10.59;100.00
40850;BME280;26571;41.610;25.380;2023-04-01T23:03:41;97353.09;;;10.64;100.00
40850;BME280;26571;41.610;25.380;2023-04-01T23:06:12;97361.78;;;10.64;100.00
40850;BME280;26571;41.610;25.380;2023-04-01T23:11:06;97365.44;;;10.63;100.00
40850;BME280;26571;41.610;25.380;2023-04-01T23:13:43;97360.94;;;10.57;100.00
40850;BME280;26571;41.610;25.380;2023-04-01T23:16:10;97361.72;;;10.51;100.00
40850;BME280;26571;41.610;25.380;2023-04-01T23:28:57;97385.94;;;10.40;100.00
40850;BME280;26571;41.610;25.380;2023-04-01T23:31:28;97384.41;;;10.52;100.00
40850;BME280;26571;41.610;25.380;2023-04-01T23:34:40;97387.25;;;10.57;100.00
40850;BME280;26571;41.610;25.380;2023-04-01T23:39:18;97379.75;;;10.54;100.00
40850;BME280;26571;41.610;25.380;2023-04-01T23:41:46;97390.13;;;10.62;100.00
40850;BME280;26571;41.610;25.380;2023-04-01T23:44:12;97394.16;;;10.58;100.00